createdAt,value
2022-11-29T00:02:13.961Z,53.30
2022-11-29T00:04:44.725Z,53.20
2022-11-29T00:07:14.112Z,53.20
2022-11-29T00:09:43.394Z,53.30
2022-11-29T00:12:15.813Z,53.20
2022-11-29T00:14:45.187Z,53.30
2022-11-29T00:17:14.424Z,53.30
2022-11-29T00:19:45.317Z,53.30
2022-11-29T00:22:14.551Z,53.30
2022-11-29T00:24:44.062Z,53.40
2022-11-29T00:27:13.408Z,53.30
2022-11-29T00:29:42.486Z,53.40
2022-11-29T00:32:11.969Z,53.60
2022-11-29T00:34:41.413Z,53.40
2022-11-29T00:37:12.101Z,53.40
2022-11-29T00:39:41.262Z,53.40
2022-11-29T00:42:10.322Z,53.40
2022-11-29T00:44:39.428Z,53.40
2022-11-29T00:47:08.555Z,53.40
2022-11-29T00:49:37.704Z,53.40
2022-11-29T00:52:07.154Z,53.40
2022-11-29T00:54:37.718Z,53.50
2022-11-29T00:57:06.868Z,53.50
2022-11-29T00:59:36.002Z,53.40
2022-11-29T01:02:05.171Z,53.50
2022-11-29T01:04:34.505Z,53.50
2022-11-29T01:07:03.656Z,53.50
2022-11-29T01:09:32.740Z,53.50
2022-11-29T01:12:03.278Z,53.50
2022-11-29T01:14:32.579Z,53.50
2022-11-29T01:17:01.902Z,53.50
2022-11-29T01:19:31.081Z,53.60
2022-11-29T01:22:00.180Z,53.50
2022-11-29T01:24:29.988Z,53.60
2022-11-29T01:26:59.113Z,53.60
2022-11-29T01:29:29.798Z,53.60
2022-11-29T01:31:58.922Z,53.60
2022-11-29T01:34:28.105Z,53.60
2022-11-29T01:36:57.258Z,53.60
2022-11-29T01:39:26.443Z,53.60
2022-11-29T01:41:55.572Z,53.60
2022-11-29T01:45:01.926Z,53.60
2022-11-29T01:47:32.964Z,53.60
2022-11-29T01:50:04.154Z,53.60
2022-11-29T01:52:34.765Z,53.70
2022-11-29T01:55:07.140Z,53.60
2022-11-29T01:57:38.136Z,53.70
2022-11-29T02:00:10.066Z,53.70
2022-11-29T02:02:45.721Z,53.70
2022-11-29T02:05:18.262Z,53.70
2022-11-29T02:07:51.189Z,53.70
2022-11-29T02:10:22.993Z,53.70
2022-11-29T02:13:01.489Z,53.60
2022-11-29T02:15:41.364Z,53.70
2022-11-29T02:18:14.864Z,53.80
2022-11-29T02:21:12.533Z,53.80
2022-11-29T02:24:14.054Z,53.70
2022-11-29T02:27:12.907Z,53.80
2022-11-29T02:30:13.708Z,53.80
2022-11-29T02:33:15.764Z,53.80
2022-11-29T02:36:17.190Z,53.80
2022-11-29T02:39:24.250Z,53.90
2022-11-29T02:42:22.245Z,53.90
2022-11-29T02:45:02.599Z,53.90
2022-11-29T02:47:46.575Z,53.90
2022-11-29T02:50:26.036Z,53.90
2022-11-29T02:53:04.274Z,53.90
2022-11-29T02:55:40.826Z,53.90
2022-11-29T02:58:20.563Z,53.90
2022-11-29T03:00:58.457Z,53.90
2022-11-29T03:03:34.546Z,53.90
2022-11-29T03:06:12.770Z,53.90
2022-11-29T03:08:54.313Z,54.20
2022-11-29T03:11:34.110Z,54.00
2022-11-29T03:14:15.804Z,54.00
2022-11-29T03:16:52.715Z,54.10
2022-11-29T03:19:48.536Z,54.00
2022-11-29T03:22:26.704Z,54.00
2022-11-29T03:25:04.188Z,54.00
2022-11-29T03:27:42.525Z,54.00
2022-11-29T03:30:14.180Z,54.00
2022-11-29T03:32:49.234Z,54.00
2022-11-29T03:35:26.142Z,54.00
2022-11-29T03:38:03.890Z,54.00
2022-11-29T03:40:41.508Z,54.00
2022-11-29T03:43:15.576Z,54.00
2022-11-29T03:45:53.171Z,54.00
2022-11-29T03:48:29.188Z,54.00
2022-11-29T03:51:03.061Z,54.00
2022-11-29T03:53:40.584Z,54.00
2022-11-29T03:56:29.402Z,54.10
2022-11-29T03:59:12.445Z,54.10
2022-11-29T04:02:36.117Z,54.10
2022-11-29T04:05:29.985Z,54.10
2022-11-29T04:08:36.333Z,54.10
2022-11-29T04:11:37.344Z,54.10
2022-11-29T04:14:31.740Z,54.20
2022-11-29T04:17:28.145Z,54.20
2022-11-29T04:20:39.727Z,54.10
2022-11-29T04:23:48.762Z,54.20
2022-11-29T04:26:45.054Z,54.20
2022-11-29T04:29:39.439Z,54.20
2022-11-29T04:32:37.510Z,54.20
2022-11-29T04:35:21.752Z,54.20
2022-11-29T04:38:16.531Z,54.20
2022-11-29T04:41:03.842Z,54.20
2022-11-29T04:43:56.347Z,54.20
2022-11-29T04:46:42.815Z,54.20
2022-11-29T04:49:48.772Z,54.20
2022-11-29T04:52:33.117Z,54.20
2022-11-29T04:55:20.917Z,54.20
2022-11-29T04:58:02.924Z,54.20
2022-11-29T05:00:41.178Z,54.20
2022-11-29T05:03:18.286Z,54.20
2022-11-29T05:05:54.103Z,54.20
2022-11-29T05:08:34.597Z,54.20
2022-11-29T05:11:13.030Z,54.20
2022-11-29T05:13:52.454Z,54.20
2022-11-29T05:16:39.089Z,54.20
2022-11-29T05:19:29.951Z,54.50
2022-11-29T05:22:10.458Z,54.40
2022-11-29T05:24:53.799Z,54.40
2022-11-29T05:27:33.107Z,54.40
2022-11-29T05:30:07.753Z,54.50
2022-11-29T05:32:47.124Z,54.50
2022-11-29T05:35:40.517Z,55.20
2022-11-29T05:38:21.474Z,55.00
2022-11-29T05:41:03.275Z,55.40
2022-11-29T05:43:49.885Z,55.80
2022-11-29T05:46:24.506Z,56.00
2022-11-29T05:49:05.521Z,56.00
2022-11-29T05:51:45.444Z,56.20
2022-11-29T05:54:28.057Z,56.10
2022-11-29T05:57:09.750Z,56.00
2022-11-29T05:59:40.436Z,56.00
2022-11-29T06:02:24.267Z,55.90
2022-11-29T06:05:06.774Z,55.90
2022-11-29T06:07:42.925Z,55.70
2022-11-29T06:10:17.839Z,55.70
2022-11-29T06:12:56.516Z,55.70
2022-11-29T06:15:59.279Z,55.70
2022-11-29T06:18:46.645Z,55.70
2022-11-29T06:21:28.018Z,55.70
2022-11-29T06:24:26.075Z,55.60
2022-11-29T06:27:22.148Z,55.70
2022-11-29T06:29:59.102Z,55.60
2022-11-29T06:32:36.997Z,55.60
2022-11-29T06:35:11.341Z,55.70
2022-11-29T06:37:45.657Z,56.10
2022-11-29T06:40:17.373Z,56.10
2022-11-29T06:42:46.609Z,56.20
2022-11-29T06:45:17.419Z,56.20
2022-11-29T06:47:51.706Z,56.20
2022-11-29T06:50:38.004Z,56.20
2022-11-29T06:53:17.966Z,56.20
2022-11-29T06:55:54.238Z,56.20
2022-11-29T06:58:37.271Z,56.20
2022-11-29T07:01:17.202Z,56.10
2022-11-29T07:04:08.926Z,56.10
2022-11-29T07:06:39.230Z,56.10
2022-11-29T07:09:15.131Z,56.10
2022-11-29T07:11:44.912Z,56.00
2022-11-29T07:14:14.938Z,56.00
2022-11-29T07:16:57.147Z,55.90
2022-11-29T07:19:38.198Z,56.50
2022-11-29T07:22:20.396Z,55.90
2022-11-29T07:25:01.268Z,55.90
2022-11-29T07:27:37.573Z,55.90
2022-11-29T07:30:14.031Z,55.80
2022-11-29T07:33:00.559Z,55.80
2022-11-29T07:35:38.775Z,55.80
2022-11-29T07:38:18.661Z,55.80
2022-11-29T07:40:56.938Z,55.90
2022-11-29T07:43:38.220Z,55.80
2022-11-29T07:46:07.469Z,55.80
2022-11-29T07:48:36.609Z,55.70
2022-11-29T07:51:06.030Z,55.70
2022-11-29T07:53:41.359Z,55.70
2022-11-29T07:56:12.427Z,55.70
2022-11-29T07:58:41.719Z,55.60
2022-11-29T08:01:11.047Z,55.60
2022-11-29T08:03:42.247Z,55.60
2022-11-29T08:06:11.529Z,55.50
2022-11-29T08:08:43.937Z,55.50
2022-11-29T08:11:16.074Z,55.60
2022-11-29T08:13:45.382Z,55.50
2022-11-29T08:16:18.174Z,55.50
2022-11-29T08:18:47.383Z,55.50
2022-11-29T08:21:18.398Z,55.50
2022-11-29T08:23:48.253Z,55.60
2022-11-29T08:26:20.270Z,55.50
2022-11-29T08:28:53.019Z,55.50
2022-11-29T08:31:22.556Z,55.50
2022-11-29T08:33:51.782Z,55.40
2022-11-29T08:36:21.983Z,55.40
2022-11-29T08:38:55.825Z,55.40
2022-11-29T08:41:32.341Z,55.40
2022-11-29T08:44:01.571Z,55.40
2022-11-29T08:46:44.396Z,55.40
2022-11-29T08:49:13.577Z,55.40
2022-11-29T08:51:42.713Z,55.40
2022-11-29T08:54:10.931Z,55.40
2022-11-29T08:59:30.586Z,55.40
2022-11-29T09:01:59.721Z,55.40
2022-11-29T09:04:29.715Z,55.40
2022-11-29T09:06:58.827Z,55.40
2022-11-29T09:09:28.031Z,55.30
2022-11-29T09:11:58.520Z,56.00
2022-11-29T09:14:27.750Z,55.30
2022-11-29T09:16:56.973Z,55.30
2022-11-29T09:19:26.469Z,55.30
2022-11-29T09:21:55.752Z,55.30
2022-11-29T09:24:24.893Z,55.30
2022-11-29T09:26:54.533Z,55.30
2022-11-29T09:29:25.063Z,55.70
2022-11-29T09:31:54.167Z,55.30
2022-11-29T09:34:23.492Z,55.30
2022-11-29T09:36:52.643Z,55.30
2022-11-29T09:39:21.879Z,55.20
2022-11-29T09:42:11.209Z,55.20
2022-11-29T09:44:55.066Z,55.20
2022-11-29T09:47:35.536Z,55.20
2022-11-29T09:50:21.074Z,55.30
2022-11-29T09:53:01.990Z,55.40
2022-11-29T09:55:44.254Z,55.40
2022-11-29T09:58:20.944Z,55.30
2022-11-29T10:00:56.482Z,55.30
2022-11-29T10:03:30.327Z,55.30
2022-11-29T10:06:04.075Z,55.30
2022-11-29T10:08:38.187Z,55.30
2022-11-29T10:11:17.603Z,55.30
2022-11-29T10:13:52.101Z,55.30
2022-11-29T10:16:29.711Z,55.30
2022-11-29T10:19:06.820Z,55.20
2022-11-29T10:21:39.745Z,55.20
2022-11-29T10:24:14.904Z,55.30
2022-11-29T10:26:44.279Z,55.20
2022-11-29T10:29:15.821Z,55.20
2022-11-29T10:31:49.623Z,55.20
2022-11-29T10:34:21.211Z,55.20
2022-11-29T10:36:53.478Z,55.20
2022-11-29T10:39:27.483Z,55.20
2022-11-29T10:42:01.120Z,55.20
2022-11-29T10:44:32.744Z,55.20
2022-11-29T10:47:10.684Z,55.20
2022-11-29T10:49:40.959Z,55.20
2022-11-29T10:52:20.671Z,55.20
2022-11-29T10:54:51.143Z,55.20
2022-11-29T10:57:22.108Z,55.80
2022-11-29T11:00:04.293Z,55.20
2022-11-29T11:02:35.926Z,55.20
2022-11-29T11:05:13.236Z,55.20
2022-11-29T11:07:42.641Z,55.20
2022-11-29T11:10:26.668Z,55.20
2022-11-29T11:13:04.214Z,55.20
2022-11-29T11:15:34.384Z,55.20
2022-11-29T11:18:07.175Z,55.20
2022-11-29T11:20:40.634Z,55.30
2022-11-29T11:23:25.493Z,55.20
2022-11-29T11:25:59.241Z,55.20
2022-11-29T11:28:30.596Z,55.20
2022-11-29T11:31:03.211Z,55.20
2022-11-29T11:33:35.572Z,55.20
2022-11-29T11:36:12.710Z,55.20
2022-11-29T11:38:43.015Z,55.20
2022-11-29T11:41:20.857Z,55.20
2022-11-29T11:43:57.649Z,55.20
2022-11-29T11:46:48.421Z,55.20
2022-11-29T11:49:30.149Z,55.20
2022-11-29T11:52:01.020Z,55.20
2022-11-29T11:54:30.944Z,55.20
2022-11-29T11:57:01.118Z,55.30
2022-11-29T11:59:30.637Z,55.20
2022-11-29T12:01:59.741Z,55.20
2022-11-29T12:04:36.223Z,55.80
2022-11-29T12:07:13.567Z,55.30
2022-11-29T12:09:46.083Z,55.20
2022-11-29T12:12:20.505Z,55.20
2022-11-29T12:14:56.979Z,55.30
2022-11-29T12:17:34.579Z,55.20
2022-11-29T12:20:20.872Z,55.30
2022-11-29T12:23:07.569Z,55.30
2022-11-29T12:25:43.183Z,55.30
2022-11-29T12:28:17.163Z,55.20
2022-11-29T12:30:56.340Z,55.20
2022-11-29T12:33:37.090Z,55.20
2022-11-29T12:36:18.688Z,55.20
2022-11-29T12:39:03.927Z,55.20
2022-11-29T12:41:50.901Z,55.30
2022-11-29T12:44:39.486Z,55.30
2022-11-29T12:47:36.739Z,55.30
2022-11-29T12:50:18.249Z,55.30
2022-11-29T12:53:00.292Z,55.30
2022-11-29T12:55:39.993Z,55.30
2022-11-29T12:58:16.667Z,55.30
2022-11-29T13:00:52.784Z,55.30
2022-11-29T13:03:29.048Z,55.30
2022-11-29T13:06:15.451Z,55.40
2022-11-29T13:09:01.326Z,55.30
2022-11-29T13:11:33.692Z,55.40
2022-11-29T13:14:41.044Z,55.40
2022-11-29T13:17:01.805Z,55.40
2022-11-29T13:19:37.843Z,55.40
2022-11-29T13:22:12.353Z,55.30
2022-11-29T13:24:46.882Z,55.30
2022-11-29T13:27:20.105Z,55.30
2022-11-29T13:29:50.300Z,55.30
2022-11-29T13:32:31.305Z,55.40
2022-11-29T13:35:05.417Z,55.30
2022-11-29T13:37:40.099Z,55.40
2022-11-29T13:40:27.158Z,55.40
2022-11-29T13:43:04.602Z,55.40
2022-11-29T13:45:41.956Z,55.40
2022-11-29T13:48:35.074Z,55.40
2022-11-29T13:51:31.350Z,55.40
2022-11-29T13:54:03.239Z,55.40
2022-11-29T13:56:46.602Z,55.40
2022-11-29T13:59:23.890Z,55.40
2022-11-29T14:01:55.257Z,55.40
2022-11-29T14:04:37.231Z,55.50
2022-11-29T14:07:10.237Z,55.40
2022-11-29T14:09:58.852Z,55.40
2022-11-29T14:12:41.150Z,55.40
2022-11-29T14:15:27.773Z,55.40
2022-11-29T14:17:59.242Z,55.40
2022-11-29T14:20:56.798Z,55.40
2022-11-29T14:23:37.883Z,55.40
2022-11-29T14:26:29.284Z,55.40
2022-11-29T14:29:00.817Z,55.50
2022-11-29T14:31:53.363Z,55.50
2022-11-29T14:34:39.237Z,55.50
2022-11-29T14:37:36.266Z,55.40
2022-11-29T14:40:21.177Z,55.40
2022-11-29T14:42:52.903Z,55.40
2022-11-29T14:45:32.917Z,55.40
2022-11-29T14:48:03.085Z,55.40
2022-11-29T14:50:37.666Z,55.50
2022-11-29T14:53:30.573Z,55.40
2022-11-29T14:56:38.921Z,55.50
2022-11-29T14:59:44.933Z,55.50
2022-11-29T15:02:27.488Z,55.50
2022-11-29T15:04:58.411Z,55.50
2022-11-29T15:07:30.581Z,55.60
2022-11-29T15:10:05.568Z,55.50
2022-11-29T15:12:37.624Z,55.50
2022-11-29T15:15:21.081Z,55.60
2022-11-29T15:18:01.088Z,55.50
2022-11-29T15:20:42.315Z,55.60
2022-11-29T15:23:15.776Z,55.60
2022-11-29T15:25:49.692Z,55.60
2022-11-29T15:28:24.184Z,55.60
2022-11-29T15:31:04.660Z,55.50
2022-11-29T15:33:38.803Z,56.10
2022-11-29T15:36:09.724Z,55.60
2022-11-29T15:38:47.405Z,55.60
2022-11-29T15:41:27.612Z,55.60
2022-11-29T15:43:59.602Z,55.60
2022-11-29T15:46:30.475Z,55.60
2022-11-29T15:49:19.299Z,55.50
2022-11-29T15:51:52.256Z,55.60
2022-11-29T15:54:31.328Z,55.60
2022-11-29T15:57:04.262Z,55.60
2022-11-29T15:59:38.571Z,56.20
2022-11-29T16:02:15.680Z,55.60
2022-11-29T16:04:49.584Z,55.60
2022-11-29T16:07:21.276Z,55.60
2022-11-29T16:09:56.385Z,55.60
2022-11-29T16:12:25.933Z,55.60
2022-11-29T16:14:57.174Z,55.60
2022-11-29T16:17:28.259Z,55.60
2022-11-29T16:20:24.845Z,55.60
2022-11-29T16:23:12.617Z,55.60
2022-11-29T16:25:57.050Z,55.60
2022-11-29T16:28:31.137Z,55.60
2022-11-29T16:31:00.984Z,55.60
2022-11-29T16:33:30.179Z,55.60
2022-11-29T16:36:12.502Z,55.60
2022-11-29T16:38:47.066Z,55.60
2022-11-29T16:41:35.230Z,55.60
2022-11-29T16:44:05.638Z,55.70
2022-11-29T16:46:37.478Z,55.60
2022-11-29T16:49:37.007Z,55.70
2022-11-29T16:52:25.441Z,55.80
2022-11-29T16:54:54.646Z,55.70
2022-11-29T16:57:24.290Z,56.00
2022-11-29T16:59:53.439Z,56.00
2022-11-29T17:02:22.687Z,56.10
2022-11-29T17:04:52.739Z,56.90
2022-11-29T17:07:29.582Z,56.50
2022-11-29T17:09:59.486Z,56.50
2022-11-29T17:12:28.764Z,56.80
2022-11-29T17:14:57.963Z,56.50
2022-11-29T17:17:27.507Z,56.10
2022-11-29T17:19:56.720Z,55.80
2022-11-29T17:22:27.336Z,55.50
2022-11-29T17:24:56.681Z,55.20
2022-11-29T17:27:26.118Z,55.00
2022-11-29T17:29:55.382Z,55.40
2022-11-29T17:32:26.799Z,54.80
2022-11-29T17:34:56.420Z,54.70
2022-11-29T17:37:26.972Z,54.60
2022-11-29T17:39:56.787Z,54.40
2022-11-29T17:42:26.065Z,54.40
2022-11-29T17:44:55.424Z,54.40
2022-11-29T17:47:24.605Z,54.10
2022-11-29T17:49:53.730Z,53.80
2022-11-29T17:52:22.914Z,53.90
2022-11-29T17:54:53.611Z,53.80
2022-11-29T17:57:22.789Z,53.70
2022-11-29T17:59:52.025Z,53.50
2022-11-29T18:02:21.205Z,53.40
2022-11-29T18:04:50.413Z,53.40
2022-11-29T18:07:19.640Z,53.50
2022-11-29T18:09:49.153Z,53.60
2022-11-29T18:12:20.410Z,53.70
2022-11-29T18:14:51.075Z,53.80
2022-11-29T18:17:20.314Z,53.80
2022-11-29T18:19:49.394Z,53.80
2022-11-29T18:22:18.576Z,53.90
2022-11-29T18:24:47.845Z,54.40
2022-11-29T18:27:16.996Z,53.80
2022-11-29T18:29:47.819Z,53.80
2022-11-29T18:32:17.288Z,53.80
2022-11-29T18:34:46.620Z,53.90
2022-11-29T18:37:27.565Z,53.80
2022-11-29T18:40:05.483Z,53.90
2022-11-29T18:42:34.624Z,53.80
2022-11-29T18:45:05.955Z,53.90
2022-11-29T18:47:35.586Z,53.90
2022-11-29T18:50:05.143Z,54.00
2022-11-29T18:52:39.311Z,53.90
2022-11-29T18:55:10.637Z,53.90
2022-11-29T18:57:40.054Z,53.90
2022-11-29T19:00:12.246Z,53.90
2022-11-29T19:02:42.033Z,53.90
2022-11-29T19:05:11.731Z,54.40
2022-11-29T19:07:41.140Z,53.80
2022-11-29T19:10:11.218Z,53.90
2022-11-29T19:12:40.708Z,53.90
2022-11-29T19:15:12.480Z,53.90
2022-11-29T19:17:43.271Z,53.90
2022-11-29T19:20:14.076Z,53.90
2022-11-29T19:22:43.426Z,53.80
2022-11-29T19:25:12.767Z,53.70
2022-11-29T19:27:43.894Z,53.60
2022-11-29T19:30:17.544Z,53.50
2022-11-29T19:32:46.958Z,53.60
2022-11-29T19:35:16.410Z,53.50
2022-11-29T19:37:46.358Z,53.50
2022-11-29T19:40:15.810Z,53.40
2022-11-29T19:42:45.742Z,53.40
2022-11-29T19:45:18.033Z,53.30
2022-11-29T19:47:47.611Z,53.20
2022-11-29T19:50:17.294Z,53.20
2022-11-29T19:52:46.727Z,53.20
2022-11-29T19:55:16.169Z,53.40
2022-11-29T19:57:45.401Z,53.50
2022-11-29T20:00:17.601Z,54.10
2022-11-29T20:02:46.877Z,54.30
2022-11-29T20:05:16.578Z,54.10
2022-11-29T20:07:45.823Z,54.10
2022-11-29T20:10:15.307Z,54.00
2022-11-29T20:12:44.599Z,53.90
2022-11-29T20:15:15.550Z,53.80
2022-11-29T20:17:44.955Z,53.70
2022-11-29T20:20:15.140Z,53.60
2022-11-29T20:22:44.615Z,53.60
2022-11-29T20:25:14.408Z,53.70
2022-11-29T20:27:44.196Z,53.60
2022-11-29T20:30:16.705Z,53.60
2022-11-29T20:32:47.195Z,53.60
2022-11-29T20:35:17.483Z,53.50
2022-11-29T20:38:12.227Z,53.30
2022-11-29T20:40:51.444Z,53.30
2022-11-29T20:43:25.581Z,53.40
2022-11-29T20:45:59.056Z,53.40
2022-11-29T20:48:29.633Z,53.20
2022-11-29T20:51:01.519Z,53.10
2022-11-29T20:53:37.198Z,53.10
2022-11-29T20:56:08.955Z,53.00
2022-11-29T20:58:40.651Z,52.90
2022-11-29T21:01:15.470Z,52.90
2022-11-29T21:03:45.225Z,52.90
2022-11-29T21:06:14.543Z,52.90
2022-11-29T21:08:43.857Z,52.80
2022-11-29T21:11:13.622Z,52.70
2022-11-29T21:13:44.322Z,52.70
2022-11-29T21:16:16.544Z,52.90
2022-11-29T21:18:46.429Z,53.00
2022-11-29T21:21:27.572Z,53.20
2022-11-29T21:24:04.617Z,53.30
2022-11-29T21:26:41.756Z,53.50
2022-11-29T21:29:17.757Z,53.50
2022-11-29T21:31:50.184Z,53.60
2022-11-29T21:34:19.421Z,53.60
2022-11-29T21:36:54.612Z,53.70
2022-11-29T21:39:25.922Z,53.80
2022-11-29T21:41:55.069Z,53.80
2022-11-29T21:44:24.193Z,53.80
2022-11-29T21:46:54.778Z,54.40
2022-11-29T21:49:24.126Z,53.80
2022-11-29T21:51:53.199Z,53.90
2022-11-29T21:54:22.427Z,53.90
2022-11-29T21:56:51.536Z,53.90
2022-11-29T21:59:20.639Z,53.90
2022-11-29T22:01:49.922Z,53.90
2022-11-29T22:04:20.620Z,53.90
2022-11-29T22:06:49.751Z,53.90
2022-11-29T22:09:18.886Z,53.90
2022-11-29T22:11:47.985Z,53.90
2022-11-29T22:14:18.503Z,54.00
2022-11-29T22:16:49.750Z,53.90
2022-11-29T22:19:22.209Z,53.90
2022-11-29T22:21:52.861Z,53.90
2022-11-29T22:24:23.355Z,54.10
2022-11-29T22:26:53.949Z,53.90
2022-11-29T22:29:23.336Z,54.00
2022-11-29T22:31:54.725Z,54.00
2022-11-29T22:34:26.792Z,53.90
2022-11-29T22:36:56.115Z,53.90
2022-11-29T22:39:25.749Z,53.90
2022-11-29T22:41:55.411Z,53.90
2022-11-29T22:44:25.196Z,53.90
2022-11-29T22:46:54.576Z,53.90
2022-11-29T22:49:25.202Z,53.90
2022-11-29T22:51:55.062Z,54.50
2022-11-29T22:54:24.249Z,53.90
2022-11-29T22:56:53.525Z,53.90
2022-11-29T22:59:22.656Z,54.00
2022-11-29T23:01:51.851Z,53.90
2022-11-29T23:04:21.054Z,54.00
2022-11-29T23:06:51.542Z,54.60
2022-11-29T23:09:22.636Z,54.00
2022-11-29T23:11:55.962Z,54.10
2022-11-29T23:14:25.572Z,54.10
2022-11-29T23:16:54.802Z,54.00
2022-11-29T23:19:24.181Z,54.10
2022-11-29T23:21:56.570Z,54.00
2022-11-29T23:24:25.915Z,54.10
2022-11-29T23:26:55.051Z,54.10
2022-11-29T23:29:24.155Z,54.10
2022-11-29T23:31:53.311Z,54.10
2022-11-29T23:34:22.439Z,54.70
2022-11-29T23:36:53.298Z,54.10
2022-11-29T23:39:24.078Z,54.10
2022-11-29T23:41:53.334Z,54.20
2022-11-29T23:44:22.399Z,54.20
2022-11-29T23:46:51.522Z,54.10
2022-11-29T23:49:20.643Z,54.20
2022-11-29T23:51:49.742Z,54.10
2022-11-29T23:54:18.920Z,54.20
2022-11-29T23:56:49.412Z,54.20
2022-11-29T23:59:18.549Z,54.20
